Time;durP1;ratioP1;P1;durP2;ratioP2;P2;SDS_P1;SDS_P2;PMS_P1;PMS_P2;Temp;Humidity;BMP_temperature;BMP_pressure;BME280_temperature;BME280_humidity;BME280_pressure;Samples;Min_cycle;Max_cycle;Signal;HPM_P1;HPM_P2
2021/03/12 00:00:20;;;;;;;;;;;;;;;17.62;38.02;98930.69;4413395;32;19969;-50
2021/03/12 00:02:46;;;;;;;;;;;;;;;17.65;38.11;98925.41;4415147;32;20335;-49
2021/03/12 00:05:12;;;;;;;;;;;;;;;17.62;38.00;98925.41;4413765;32;19962;-51
2021/03/12 00:07:38;;;;;;;;;;;;;;;17.59;38.05;98932.44;4414299;32;19981;-51
2021/03/12 00:10:04;;;;;;;;;;;;;;;17.59;38.12;98933.28;4413643;32;19969;-52
2021/03/12 00:12:30;;;;;;;;;;;;;;;17.59;38.09;98932.44;4414504;32;20008;-48
2021/03/12 00:14:55;;;;;;;;;;;;;;;17.60;38.11;98935.06;4413497;32;20343;-48
2021/03/12 00:17:21;;;;;;;;;;;;;;;17.62;38.04;98933.31;4413908;32;20044;-49
2021/03/12 00:19:47;;;;;;;;;;;;;;;17.59;38.28;98943.81;4414632;32;20412;-50
2021/03/12 00:22:13;;;;;;;;;;;;;;;17.60;38.04;98949.97;4412708;32;19962;-50
2021/03/12 00:24:39;;;;;;;;;;;;;;;17.61;37.96;98954.34;4410711;32;19968;-53
2021/03/12 00:27:05;;;;;;;;;;;;;;;17.58;38.07;98963.13;4413728;32;19973;-53
2021/03/12 00:29:31;;;;;;;;;;;;;;;17.51;38.33;98969.28;4414283;32;20393;-52
2021/03/12 00:31:57;;;;;;;;;;;;;;;17.47;38.55;98981.53;4414379;32;19957;-50
2021/03/12 00:34:22;;;;;;;;;;;;;;;17.45;38.19;98972.78;4413164;32;20042;-51
2021/03/12 00:36:48;;;;;;;;;;;;;;;17.44;38.36;98991.19;4414176;32;19966;-51
2021/03/12 00:39:14;;;;;;;;;;;;;;;17.46;38.44;99000.84;4414248;32;20477;-50
2021/03/12 00:41:40;;;;;;;;;;;;;;;17.46;38.32;99000.84;4414994;32;20002;-49
2021/03/12 00:44:06;;;;;;;;;;;;;;;17.48;38.34;99001.72;4413916;32;19970;-51
2021/03/12 00:46:32;;;;;;;;;;;;;;;17.52;38.13;99028.94;4414327;32;19958;-52
2021/03/12 00:48:58;;;;;;;;;;;;;;;17.45;38.29;99030.66;4413953;32;20539;-48
2021/03/12 00:51:24;;;;;;;;;;;;;;;17.52;38.10;99036.81;4409187;32;19958;-48
2021/03/12 00:53:50;;;;;;;;;;;;;;;17.50;38.20;99036.81;4413507;32;19953;-50
2021/03/12 00:56:16;;;;;;;;;;;;;;;17.44;38.22;99062.22;4413444;32;20017;-48
2021/03/12 00:58:42;;;;;;;;;;;;;;;17.44;38.25;99055.22;4413452;32;20008;-49
2021/03/12 01:01:07;;;;;;;;;;;;;;;17.49;38.13;99066.62;4415446;32;20013;-49
2021/03/12 01:03:33;;;;;;;;;;;;;;;17.46;38.35;99073.63;4417122;32;20002;-51
2021/03/12 01:05:59;;;;;;;;;;;;;;;17.45;38.03;99066.62;4416435;32;19950;-53
2021/03/12 01:08:25;;;;;;;;;;;;;;;17.48;38.19;99066.66;4416313;32;19954;-49
2021/03/12 01:10:51;;;;;;;;;;;;;;;17.44;38.21;99065.75;4416785;32;20008;-46
2021/03/12 01:13:17;;;;;;;;;;;;;;;17.46;38.17;99071.91;4416323;32;19991;-53
2021/03/12 01:15:43;;;;;;;;;;;;;;;17.44;38.30;99071.03;4417185;32;19961;-53
2021/03/12 01:18:10;;;;;;;;;;;;;;;17.45;38.16;99077.16;4406442;32;20331;-48
2021/03/12 01:20:36;;;;;;;;;;;;;;;17.42;38.18;99073.63;4412048;32;19954;-51
2021/03/12 01:23:02;;;;;;;;;;;;;;;17.41;38.22;99092.06;4416820;32;20738;-49
2021/03/12 01:25:28;;;;;;;;;;;;;;;17.45;38.24;99092.94;4416933;32;19994;-51
2021/03/12 01:27:54;;;;;;;;;;;;;;;17.39;38.23;99078.91;4400251;32;19955;-50
2021/03/12 01:30:20;;;;;;;;;;;;;;;17.41;38.36;99082.41;4416715;32;19954;-52
2021/03/12 01:32:45;;;;;;;;;;;;;;;17.41;38.30;99092.94;4416848;32;20552;-50
2021/03/12 01:35:12;;;;;;;;;;;;;;;17.40;38.16;99096.44;4415547;32;20008;-51
2021/03/12 01:37:37;;;;;;;;;;;;;;;17.36;38.33;99102.56;4415369;32;19973;-46
2021/03/12 01:40:03;;;;;;;;;;;;;;;17.39;38.14;99097.31;4416701;32;19978;-48
2021/03/12 01:42:29;;;;;;;;;;;;;;;17.38;38.25;99103.47;4415399;32;19965;-49
2021/03/12 01:44:55;;;;;;;;;;;;;;;17.37;38.30;99104.34;4417150;32;19968;-51
2021/03/12 01:47:21;;;;;;;;;;;;;;;17.42;38.12;99099.94;4415382;32;20734;-52
2021/03/12 01:49:47;;;;;;;;;;;;;;;17.42;37.94;99101.72;4414850;32;19980;-53
2021/03/12 01:52:13;;;;;;;;;;;;;;;17.38;38.20;99103.47;4416908;32;19966;-51
2021/03/12 01:54:39;;;;;;;;;;;;;;;17.40;38.00;99091.19;4417125;32;19986;-49
2021/03/12 01:57:04;;;;;;;;;;;;;;;17.38;38.14;99094.66;4414831;32;19966;-50
2021/03/12 01:59:30;;;;;;;;;;;;;;;17.35;38.19;99102.56;4416473;32;20666;-51
2021/03/12 02:01:56;;;;;;;;;;;;;;;17.38;38.15;99108.72;4416785;32;19964;-50
2021/03/12 02:04:22;;;;;;;;;;;;;;;17.39;37.94;99114.84;4414678;32;19997;-52
2021/03/12 02:06:48;;;;;;;;;;;;;;;17.42;37.91;99115.75;4415921;32;20331;-50
2021/03/12 02:09:15;;;;;;;;;;;;;;;17.41;37.94;99119.25;4416773;32;19962;-52
2021/03/12 02:11:41;;;;;;;;;;;;;;;17.42;38.03;99131.53;4401935;32;20056;-50
2021/03/12 02:14:09;;;;;;;;;;;;;;;17.34;38.23;99137.63;4412429;32;19958;-50
2021/03/12 02:16:35;;;;;;;;;;;;;;;17.36;38.08;99130.63;4416528;32;19980;-49
2021/03/12 02:19:01;;;;;;;;;;;;;;;17.36;37.97;99141.16;4414739;32;19997;-50
2021/03/12 02:21:27;;;;;;;;;;;;;;;17.27;38.21;99153.38;4415132;32;19965;-49
2021/03/12 02:23:52;;;;;;;;;;;;;;;17.28;38.11;99151.62;4415922;32;20003;-49
2021/03/12 02:26:18;;;;;;;;;;;;;;;17.23;38.20;99150.75;4416438;32;19978;-49
2021/03/12 02:28:44;;;;;;;;;;;;;;;17.24;38.17;99153.38;4412340;32;20328;-49
2021/03/12 02:31:10;;;;;;;;;;;;;;;17.18;38.32;99152.44;4412328;32;19958;-52
2021/03/12 02:33:36;;;;;;;;;;;;;;;17.24;38.09;99152.50;4415305;32;19946;-48
2021/03/12 02:36:02;;;;;;;;;;;;;;;17.22;38.13;99143.69;4414553;32;19968;-50
2021/03/12 02:38:28;;;;;;;;;;;;;;;17.30;37.85;99152.53;4415420;32;20368;-52
2021/03/12 02:40:54;;;;;;;;;;;;;;;17.33;37.74;99146.41;4416298;32;19958;-48
2021/03/12 02:43:20;;;;;;;;;;;;;;;17.32;37.73;99145.50;4414901;32;19962;-47
2021/03/12 02:45:45;;;;;;;;;;;;;;;17.33;37.63;99149.91;4415329;32;20387;-49
2021/03/12 02:48:11;;;;;;;;;;;;;;;17.28;37.84;99156.91;4414026;32;20013;-52
2021/03/12 02:50:37;;;;;;;;;;;;;;;17.28;37.85;99167.44;4416248;32;19962;-46
2021/03/12 02:53:03;;;;;;;;;;;;;;;17.25;37.99;99165.66;4414666;32;20585;-50
2021/03/12 02:55:29;;;;;;;;;;;;;;;17.30;37.91;99178.84;4415401;32;19954;-50
2021/03/12 02:57:55;;;;;;;;;;;;;;;17.26;37.93;99183.19;4414854;32;20042;-47
2021/03/12 03:00:21;;;;;;;;;;;;;;;17.27;37.84;99179.69;4415665;32;19994;-51
2021/03/12 03:02:47;;;;;;;;;;;;;;;17.25;38.05;99191.97;4414895;32;20345;-48
2021/03/12 03:05:12;;;;;;;;;;;;;;;17.23;37.94;99193.72;4404153;32;19997;-50
2021/03/12 03:07:38;;;;;;;;;;;;;;;17.17;37.99;99203.31;4397521;32;19958;-48
2021/03/12 03:10:04;;;;;;;;;;;;;;;17.17;38.10;99198.03;4412261;32;20382;-48
2021/03/12 03:12:30;;;;;;;;;;;;;;;17.22;37.89;99191.06;4415085;32;19962;-48
2021/03/12 03:14:56;;;;;;;;;;;;;;;17.26;37.79;99198.13;4415656;32;19962;-51
2021/03/12 03:17:22;;;;;;;;;;;;;;;17.20;38.06;99205.94;4414958;32;20003;-47
2021/03/12 03:19:48;;;;;;;;;;;;;;;17.22;37.91;99215.63;4413853;32;19984;-49
2021/03/12 03:22:14;;;;;;;;;;;;;;;17.28;37.81;99212.16;4414352;32;19973;-45
2021/03/12 03:24:40;;;;;;;;;;;;;;;17.25;37.73;99213.00;4415514;32;19968;-49
2021/03/12 03:27:05;;;;;;;;;;;;;;;17.21;37.81;99208.59;4412109;32;19962;-50
2021/03/12 03:29:31;;;;;;;;;;;;;;;17.20;37.90;99222.63;4415955;32;19966;-51
2021/03/12 03:31:57;;;;;;;;;;;;;;;17.28;37.87;99217.44;4415834;32;20037;-48
2021/03/12 03:34:23;;;;;;;;;;;;;;;17.14;37.93;99231.37;4413957;32;20118;-47
2021/03/12 03:36:49;;;;;;;;;;;;;;;17.26;37.80;99227.06;4414572;32;19966;-49
2021/03/12 03:39:15;;;;;;;;;;;;;;;17.21;37.79;99223.50;4402240;32;19966;-48
2021/03/12 03:41:41;;;;;;;;;;;;;;;17.18;37.71;99236.63;4415398;32;19966;-47
2021/03/12 03:44:07;;;;;;;;;;;;;;;17.22;37.85;99239.31;4414450;32;19995;-47
2021/03/12 03:46:32;;;;;;;;;;;;;;;17.19;37.74;99238.41;4413515;32;19962;-50
2021/03/12 03:48:58;;;;;;;;;;;;;;;17.17;37.91;99246.28;4413435;32;19958;-48
2021/03/12 03:51:24;;;;;;;;;;;;;;;17.21;37.88;99236.66;4414569;32;19973;-48
2021/03/12 03:53:50;;;;;;;;;;;;;;;17.21;37.82;99234.03;4415040;32;20049;-47
2021/03/12 03:56:16;;;;;;;;;;;;;;;17.16;38.01;99238.37;4413849;32;19973;-50
2021/03/12 03:58:42;;;;;;;;;;;;;;;17.09;38.11;99233.06;4413054;32;20348;-53
2021/03/12 04:01:08;;;;;;;;;;;;;;;17.20;37.95;99240.16;4409221;32;19958;-50
2021/03/12 04:03:34;;;;;;;;;;;;;;;17.14;38.01;99246.25;4413483;32;19958;-50
2021/03/12 04:06:00;;;;;;;;;;;;;;;17.17;37.80;99245.41;4415938;32;20006;-48
2021/03/12 04:08:26;;;;;;;;;;;;;;;17.10;38.11;99245.38;4414265;32;19993;-48
2021/03/12 04:10:52;;;;;;;;;;;;;;;17.13;37.90;99240.13;4414575;32;20016;-50
2021/03/12 04:13:18;;;;;;;;;;;;;;;17.10;37.93;99253.25;4415028;32;19962;-50
2021/03/12 04:15:43;;;;;;;;;;;;;;;17.13;37.85;99252.38;4415634;32;19958;-50
2021/03/12 04:18:09;;;;;;;;;;;;;;;17.10;37.98;99260.25;4412805;32;19958;-53
2021/03/12 04:20:35;;;;;;;;;;;;;;;17.11;37.92;99255.03;4414421;32;19995;-52
2021/03/12 04:23:01;;;;;;;;;;;;;;;17.11;37.93;99268.19;4415410;32;20034;-51
2021/03/12 04:25:27;;;;;;;;;;;;;;;17.09;37.84;99269.03;4414065;32;20344;-52
2021/03/12 04:27:53;;;;;;;;;;;;;;;17.05;38.06;99273.38;4414279;32;19955;-52
2021/03/12 04:30:19;;;;;;;;;;;;;;;17.08;37.93;99275.16;4415206;32;19962;-50
2021/03/12 04:32:45;;;;;;;;;;;;;;;17.11;37.92;99273.44;4414408;32;19965;-49
2021/03/12 04:35:10;;;;;;;;;;;;;;;17.07;37.90;99282.16;4414238;32;20321;-50
2021/03/12 04:37:36;;;;;;;;;;;;;;;17.09;37.98;99282.19;4417250;32;19982;-48
2021/03/12 04:40:02;;;;;;;;;;;;;;;17.10;38.00;99279.56;4418494;32;19970;-50
2021/03/12 04:42:28;;;;;;;;;;;;;;;17.07;37.87;99289.19;4417762;32;21687;-51
2021/03/12 04:44:54;;;;;;;;;;;;;;;17.09;37.80;99283.03;4411690;32;19960;-49
2021/03/12 04:47:20;;;;;;;;;;;;;;;17.10;37.77;99287.47;4417119;32;20003;-51
2021/03/12 04:49:46;;;;;;;;;;;;;;;17.06;37.91;99290.91;4417805;32;19960;-53
2021/03/12 04:52:11;;;;;;;;;;;;;;;17.07;37.93;99290.03;4418449;32;20008;-50
2021/03/12 04:54:37;;;;;;;;;;;;;;;17.08;37.82;99288.31;4416421;32;20371;-54
2021/03/12 04:57:03;;;;;;;;;;;;;;;17.08;37.67;99289.16;4416335;32;19969;-50
2021/03/12 04:59:29;;;;;;;;;;;;;;;17.11;37.75;99283.06;4418251;32;19990;-53
2021/03/12 05:01:55;;;;;;;;;;;;;;;17.04;37.78;99292.66;4415594;32;20354;-51
2021/03/12 05:04:21;;;;;;;;;;;;;;;17.07;37.81;99297.94;4416588;32;20053;-51
2021/03/12 05:06:47;;;;;;;;;;;;;;;17.09;37.71;99290.94;4417397;32;20016;-48
2021/03/12 05:09:13;;;;;;;;;;;;;;;17.09;37.88;99295.31;4417274;32;19973;-51
2021/03/12 05:11:39;;;;;;;;;;;;;;;17.04;37.89;99290.03;4417779;32;20294;-46
2021/03/12 05:14:07;;;;;;;;;;;;;;;17.07;37.75;99297.06;4417163;32;19989;-51
2021/03/12 05:16:33;;;;;;;;;;;;;;;17.10;37.89;99297.09;4417858;32;19980;-52
2021/03/12 05:18:58;;;;;;;;;;;;;;;17.09;37.81;99296.19;4416801;32;19946;-52
2021/03/12 05:21:24;;;;;;;;;;;;;;;17.07;37.99;99297.06;4417251;32;20001;-54
2021/03/12 05:23:50;;;;;;;;;;;;;;;17.07;37.86;99307.59;4417625;32;20338;-52
2021/03/12 05:26:16;;;;;;;;;;;;;;;17.12;37.77;99305.88;4416940;32;19973;-52
2021/03/12 05:28:42;;;;;;;;;;;;;;;17.11;37.74;99315.53;4416253;32;19965;-52
2021/03/12 05:31:08;;;;;;;;;;;;;;;17.06;37.85;99319.84;4417678;32;20027;-49
2021/03/12 05:33:34;;;;;;;;;;;;;;;17.09;37.88;99317.22;4416600;32;19962;-49
2021/03/12 05:36:00;;;;;;;;;;;;;;;17.06;37.81;99327.72;4417654;32;20003;-52
2021/03/12 05:38:25;;;;;;;;;;;;;;;17.07;37.89;99329.50;4416008;32;19957;-50
2021/03/12 05:40:51;;;;;;;;;;;;;;;16.99;38.02;99333.78;4417569;32;20330;-51
2021/03/12 05:43:17;;;;;;;;;;;;;;;17.07;37.79;99340.03;4417918;32;20035;-49
2021/03/12 05:45:43;;;;;;;;;;;;;;;17.09;37.74;99347.94;4416627;32;19958;-51
2021/03/12 05:48:09;;;;;;;;;;;;;;;17.11;37.61;99351.47;4412754;32;20003;-52
2021/03/12 05:50:35;;;;;;;;;;;;;;;17.09;37.75;99354.06;4417389;32;19973;-49
2021/03/12 05:53:01;;;;;;;;;;;;;;;17.03;37.76;99351.38;4415876;32;20067;-52
2021/03/12 05:55:27;;;;;;;;;;;;;;;17.07;37.75;99354.94;4415943;32;19954;-51
2021/03/12 05:57:53;;;;;;;;;;;;;;;17.09;37.72;99353.19;4416089;32;20290;-51
2021/03/12 06:00:19;;;;;;;;;;;;;;;17.01;37.84;99361.03;4416284;32;19958;-50
2021/03/12 06:02:44;;;;;;;;;;;;;;;16.99;37.84;99358.34;4416762;32;19994;-51
2021/03/12 06:05:10;;;;;;;;;;;;;;;16.97;37.94;99359.16;4416577;32;20028;-49
2021/03/12 06:07:36;;;;;;;;;;;;;;;17.04;37.72;99355.78;4416801;32;19976;-50
2021/03/12 06:10:02;;;;;;;;;;;;;;;17.01;37.90;99366.28;4415914;32;20005;-50
2021/03/12 06:12:28;;;;;;;;;;;;;;;17.02;37.84;99368.03;4416376;32;20375;-53
2021/03/12 06:14:54;;;;;;;;;;;;;;;16.90;38.12;99368.75;4417534;32;20013;-48
2021/03/12 06:17:20;;;;;;;;;;;;;;;16.96;37.92;99370.56;4415069;32;19962;-53
2021/03/12 06:19:46;;;;;;;;;;;;;;;16.98;37.93;99376.75;4415912;32;20031;-48
2021/03/12 06:22:12;;;;;;;;;;;;;;;16.96;37.99;99373.19;4416558;32;19958;-50
2021/03/12 06:24:38;;;;;;;;;;;;;;;17.01;37.89;99374.16;4415716;32;19962;-52
2021/03/12 06:27:04;;;;;;;;;;;;;;;17.00;37.81;99372.41;4415847;32;20041;-51
2021/03/12 06:29:30;;;;;;;;;;;;;;;16.98;37.92;99376.75;4416136;32;19977;-49
2021/03/12 06:31:56;;;;;;;;;;;;;;;17.02;37.78;99381.19;4416517;32;19968;-51
2021/03/12 06:34:22;;;;;;;;;;;;;;;17.02;37.80;99378.56;4414118;32;19962;-47
2021/03/12 06:36:48;;;;;;;;;;;;;;;17.04;37.70;99375.94;4415532;32;20030;-48
2021/03/12 06:39:14;;;;;;;;;;;;;;;17.03;37.78;99375.06;4415463;32;20383;-49
2021/03/12 06:41:40;;;;;;;;;;;;;;;17.05;37.77;99378.59;4416206;32;19947;-51
2021/03/12 06:44:06;;;;;;;;;;;;;;;17.02;37.86;99380.28;4416360;32;19984;-50
2021/03/12 06:46:31;;;;;;;;;;;;;;;17.03;37.83;99387.31;4416040;32;19998;-49
2021/03/12 06:48:57;;;;;;;;;;;;;;;17.00;37.88;99386.44;4415127;32;19976;-50
2021/03/12 06:51:23;;;;;;;;;;;;;;;17.08;37.71;99383.00;4415347;32;20071;-53
2021/03/12 06:53:51;;;;;;;;;;;;;;;17.05;37.72;99385.63;4414170;32;19957;-51
2021/03/12 06:56:17;;;;;;;;;;;;;;;17.10;37.67;99381.25;4415857;32;19958;-49
2021/03/12 06:58:43;;;;;;;;;;;;;;;17.06;37.77;99396.12;4414217;32;20996;-52
2021/03/12 07:01:09;;;;;;;;;;;;;;;17.10;37.65;99392.69;4409287;32;19962;-51
2021/03/12 07:03:35;;;;;;;;;;;;;;;17.10;37.72;99386.53;4414287;32;19993;-52
2021/03/12 07:06:01;;;;;;;;;;;;;;;17.05;37.72;99394.38;4415443;32;20009;-49
2021/03/12 07:08:27;;;;;;;;;;;;;;;17.04;37.79;99397.88;4413177;32;20016;-50
2021/03/12 07:10:53;;;;;;;;;;;;;;;17.10;37.71;99395.31;4415173;32;19993;-53
2021/03/12 07:13:19;;;;;;;;;;;;;;;17.05;37.72;99383.84;4415026;32;20345;-52
2021/03/12 07:15:45;;;;;;;;;;;;;;;17.12;37.59;99387.41;4414481;32;19954;-49
2021/03/12 07:18:11;;;;;;;;;;;;;;;17.10;37.65;99387.41;4414602;32;20015;-52
2021/03/12 07:20:37;;;;;;;;;;;;;;;17.08;37.60;99394.38;4415199;32;19969;-50
2021/03/12 07:23:03;;;;;;;;;;;;;;;17.11;37.61;99397.06;4413160;32;19951;-51
2021/03/12 07:25:29;;;;;;;;;;;;;;;17.12;37.62;99396.22;4413452;32;19966;-49
2021/03/12 07:27:55;;;;;;;;;;;;;;;17.14;37.60;99404.09;4413460;32;19962;-51
2021/03/12 07:30:21;;;;;;;;;;;;;;;17.18;37.54;99405.91;4413872;32;19981;-50
2021/03/12 07:32:47;;;;;;;;;;;;;;;17.09;37.71;99406.69;4415378;32;19958;-53
2021/03/12 07:35:13;;;;;;;;;;;;;;;17.16;37.65;99412.00;4414605;32;19942;-51
2021/03/12 07:37:39;;;;;;;;;;;;;;;17.16;37.66;99427.81;4412097;32;19993;-51
2021/03/12 07:40:05;;;;;;;;;;;;;;;17.12;37.70;99435.66;4413243;32;19954;-49
2021/03/12 07:42:31;;;;;;;;;;;;;;;17.17;37.55;99429.56;4413829;32;20009;-52
2021/03/12 07:44:57;;;;;;;;;;;;;;;17.20;37.56;99434.84;4412736;32;20388;-49
2021/03/12 07:47:24;;;;;;;;;;;;;;;17.16;37.54;99438.31;4412989;32;20037;-53
2021/03/12 07:49:50;;;;;;;;;;;;;;;17.17;37.59;99432.19;4413406;32;19969;-49
2021/03/12 07:52:16;;;;;;;;;;;;;;;17.18;37.57;99436.59;4413177;32;20612;-50
2021/03/12 07:54:43;;;;;;;;;;;;;;;17.21;37.58;99447.13;4413550;32;20048;-51
2021/03/12 07:57:09;;;;;;;;;;;;;;;17.20;37.62;99443.63;4412993;32;19950;-50
2021/03/12 07:59:35;;;;;;;;;;;;;;;17.24;37.51;99448.06;4412870;32;20316;-49
2021/03/12 08:02:01;;;;;;;;;;;;;;;17.25;37.48;99443.69;4414128;32;19994;-51
2021/03/12 08:04:27;;;;;;;;;;;;;;;17.24;37.51;99453.31;4413264;32;19958;-49
2021/03/12 08:06:53;;;;;;;;;;;;;;;17.30;37.41;99454.28;4407773;32;19962;-50
2021/03/12 08:09:19;;;;;;;;;;;;;;;17.29;37.46;99450.75;4404150;32;19982;-47
2021/03/12 08:11:45;;;;;;;;;;;;;;;17.32;37.39;99452.53;4413691;32;19946;-48
2021/03/12 08:14:11;;;;;;;;;;;;;;;17.33;37.37;99457.78;4411664;32;20312;-51
2021/03/12 08:16:37;;;;;;;;;;;;;;;17.33;37.39;99452.53;4414679;32;19974;-52
2021/03/12 08:19:03;;;;;;;;;;;;;;;17.34;37.36;99454.28;4411168;32;19969;-50
2021/03/12 08:21:32;;;;;;;;;;;;;;;17.37;37.32;99456.97;4412046;32;19976;-50
2021/03/12 08:23:58;;;;;;;;;;;;;;;17.36;37.35;99457.84;4413559;32;19961;-51
2021/03/12 08:26:24;;;;;;;;;;;;;;;17.37;37.38;99470.13;4407212;32;20598;-50
2021/03/12 08:28:49;;;;;;;;;;;;;;;17.38;37.36;99465.75;4399094;32;20374;-51
2021/03/12 08:31:15;;;;;;;;;;;;;;;17.35;37.46;99466.63;4399423;32;19968;-50
2021/03/12 08:33:41;;;;;;;;;;;;;;;17.37;37.44;99469.25;4398755;32;20012;-47
2021/03/12 08:36:07;;;;;;;;;;;;;;;17.42;37.34;99473.69;4396977;32;20329;-51
2021/03/12 08:38:35;;;;;;;;;;;;;;;17.44;37.30;99475.44;4397303;32;19966;-46
2021/03/12 08:41:01;;;;;;;;;;;;;;;17.42;37.37;99484.22;4398313;32;20335;-47
2021/03/12 08:43:27;;;;;;;;;;;;;;;17.42;37.37;99481.59;4396467;32;19954;-52
2021/03/12 08:45:53;;;;;;;;;;;;;;;17.44;37.33;99492.13;4397913;32;19961;-51
2021/03/12 08:48:19;;;;;;;;;;;;;;;17.47;37.32;99478.09;4397013;32;19974;-49
2021/03/12 08:50:45;;;;;;;;;;;;;;;17.47;37.32;99475.47;4397205;32;19959;-51
2021/03/12 08:53:11;;;;;;;;;;;;;;;17.48;37.31;99486.03;4395058;32;20032;-52
2021/03/12 08:55:37;;;;;;;;;;;;;;;17.30;37.69;99484.09;4398406;32;20348;-49
2021/03/12 08:58:03;;;;;;;;;;;;;;;17.26;37.87;99477.03;4396823;32;19958;-53
2021/03/12 09:00:29;;;;;;;;;;;;;;;17.20;38.09;99476.94;4397368;32;20375;-52
2021/03/12 09:02:55;;;;;;;;;;;;;;;17.17;38.42;99476.91;4397626;32;19954;-51
2021/03/12 09:05:21;;;;;;;;;;;;;;;17.23;38.33;99482.28;4398054;32;19998;-48
2021/03/12 09:07:46;;;;;;;;;;;;;;;17.19;38.26;99475.19;4382413;32;19962;-54
2021/03/12 09:10:12;;;;;;;;;;;;;;;16.66;36.77;99469.25;4396938;32;20007;-49
2021/03/12 09:12:38;;;;;;;;;;;;;;;16.68;38.40;99473.69;4397503;32;19969;-50
2021/03/12 09:15:04;;;;;;;;;;;;;;;16.83;38.23;99486.12;4395647;32;20004;-49
2021/03/12 09:17:30;;;;;;;;;;;;;;;17.07;37.97;99475.94;4411374;32;19959;-49
2021/03/12 09:19:56;;;;;;;;;;;;;;;17.31;37.61;99471.81;4412128;32;19966;-51
2021/03/12 09:22:23;;;;;;;;;;;;;;;17.44;37.34;99480.72;4414205;32;19976;-47
2021/03/12 09:24:49;;;;;;;;;;;;;;;17.50;37.25;99475.53;4416726;32;20768;-47
2021/03/12 09:27:15;;;;;;;;;;;;;;;17.54;37.21;99472.03;4414627;32;20001;-50
2021/03/12 09:29:41;;;;;;;;;;;;;;;17.56;37.15;99470.31;4414708;32;19992;-50
2021/03/12 09:32:07;;;;;;;;;;;;;;;17.58;37.16;99467.69;4415649;32;19969;-50
2021/03/12 09:34:33;;;;;;;;;;;;;;;17.44;37.37;99471.06;4415603;32;19958;-49
2021/03/12 09:37:00;;;;;;;;;;;;;;;17.51;37.32;99467.63;4413769;32;20001;-51
2021/03/12 09:39:27;;;;;;;;;;;;;;;17.55;37.28;99465.91;4416867;32;19953;-49
2021/03/12 09:41:52;;;;;;;;;;;;;;;17.61;37.14;99471.25;4415389;32;19954;-50
2021/03/12 09:44:18;;;;;;;;;;;;;;;17.64;37.09;99463.38;4404555;32;20010;-48
2021/03/12 09:46:44;;;;;;;;;;;;;;;17.68;37.06;99461.66;4402077;32;20034;-52
2021/03/12 09:49:11;;;;;;;;;;;;;;;17.71;37.04;99464.31;4404947;32;20333;-51
2021/03/12 09:51:37;;;;;;;;;;;;;;;17.32;35.76;99466.56;4399796;32;19977;-51
2021/03/12 09:54:03;;;;;;;;;;;;;;;16.86;37.90;99461.63;4400252;32;19958;-47
2021/03/12 09:56:28;;;;;;;;;;;;;;;17.07;37.60;99461.03;4404753;32;19962;-46
2021/03/12 09:58:54;;;;;;;;;;;;;;;17.18;37.43;99462.91;4398488;32;20380;-49
2021/03/12 10:01:20;;;;;;;;;;;;;;;17.30;37.23;99467.44;4407924;32;19958;-51
2021/03/12 10:03:46;;;;;;;;;;;;;;;17.35;37.19;99461.34;4415469;32;20581;-45
2021/03/12 10:06:12;;;;;;;;;;;;;;;17.40;37.11;99459.63;4414989;32;19953;-49
2021/03/12 10:08:38;;;;;;;;;;;;;;;17.44;37.10;99460.56;4415487;32;19957;-47
2021/03/12 10:11:04;;;;;;;;;;;;;;;17.49;37.07;99460.59;4416244;32;19954;-48
2021/03/12 10:13:30;;;;;;;;;;;;;;;17.51;37.04;99450.97;4415037;32;20331;-47
2021/03/12 10:15:55;;;;;;;;;;;;;;;17.51;37.15;99450.97;4415814;32;20015;-48
2021/03/12 10:18:22;;;;;;;;;;;;;;;17.51;37.17;99445.69;4415344;32;19985;-47
2021/03/12 10:20:48;;;;;;;;;;;;;;;17.52;37.20;99447.47;4415837;32;20699;-49
2021/03/12 10:23:14;;;;;;;;;;;;;;;17.53;37.24;99438.69;4416060;32;20366;-49
2021/03/12 10:25:40;;;;;;;;;;;;;;;17.53;37.22;99433.44;4416048;32;20021;-49
2021/03/12 10:28:06;;;;;;;;;;;;;;;17.53;37.29;99430.78;4415000;32;19972;-48
2021/03/12 10:30:32;;;;;;;;;;;;;;;17.53;37.28;99428.16;4404556;32;19966;-47
2021/03/12 10:32:58;;;;;;;;;;;;;;;17.54;37.23;99428.19;4415741;32;20381;-49
2021/03/12 10:35:24;;;;;;;;;;;;;;;17.54;37.25;99432.56;4415474;32;20368;-50
2021/03/12 10:37:50;;;;;;;;;;;;;;;17.53;37.29;99429.06;4414835;32;19950;-48
2021/03/12 10:40:16;;;;;;;;;;;;;;;17.55;37.25;99431.69;4415367;32;20005;-48
2021/03/12 10:42:42;;;;;;;;;;;;;;;17.56;37.22;99429.06;4415522;32;20677;-50
2021/03/12 10:45:08;;;;;;;;;;;;;;;17.58;37.26;99425.56;4414911;32;19962;-50
2021/03/12 10:47:34;;;;;;;;;;;;;;;17.58;37.28;99431.69;4414956;32;19977;-51
2021/03/12 10:50:00;;;;;;;;;;;;;;;17.58;37.25;99426.44;4409405;32;20009;-49
2021/03/12 10:52:26;;;;;;;;;;;;;;;17.57;37.38;99419.41;4395325;32;20330;-48
2021/03/12 10:54:52;;;;;;;;;;;;;;;17.60;37.29;99435.25;4401290;32;19939;-48
2021/03/12 10:57:17;;;;;;;;;;;;;;;17.60;37.33;99431.72;4399735;32;20017;-51
2021/03/12 10:59:43;;;;;;;;;;;;;;;17.59;37.41;99428.19;4415065;32;19992;-47
2021/03/12 11:02:09;;;;;;;;;;;;;;;17.60;37.36;99435.25;4414664;32;19954;-49
2021/03/12 11:04:38;;;;;;;;;;;;;;;17.65;37.39;99423.00;4414784;32;20005;-49
2021/03/12 11:07:04;;;;;;;;;;;;;;;17.66;37.43;99414.22;4414650;32;20346;-49
2021/03/12 11:09:29;;;;;;;;;;;;;;;17.68;37.40;99407.22;4414761;32;20015;-50
2021/03/12 11:11:56;;;;;;;;;;;;;;;17.69;37.41;99401.09;4415633;32;19989;-49
2021/03/12 11:14:22;;;;;;;;;;;;;;;17.71;37.49;99395.84;4414073;32;20009;-49
2021/03/12 11:16:48;;;;;;;;;;;;;;;17.77;37.32;99406.41;4414700;32;19954;-45
2021/03/12 11:19:14;;;;;;;;;;;;;;;17.78;37.30;99396.78;4414136;32;19992;-46
2021/03/12 11:21:41;;;;;;;;;;;;;;;17.78;37.31;99407.31;4415132;32;19962;-48
2021/03/12 11:24:07;;;;;;;;;;;;;;;17.75;37.33;99392.34;4415096;32;21238;-49
2021/03/12 11:26:33;;;;;;;;;;;;;;;17.74;37.37;99389.72;4415583;32;20009;-48
2021/03/12 11:28:59;;;;;;;;;;;;;;;17.77;37.29;99384.47;4413334;32;19982;-49
2021/03/12 11:31:27;;;;;;;;;;;;;;;17.78;37.28;99391.50;4414816;32;19977;-49
2021/03/12 11:33:53;;;;;;;;;;;;;;;17.79;37.28;99382.72;4415296;32;20288;-47
2021/03/12 11:36:19;;;;;;;;;;;;;;;17.80;37.25;99371.31;4413548;32;20013;-51
2021/03/12 11:38:45;;;;;;;;;;;;;;;17.82;37.24;99375.75;4413894;32;19995;-47
2021/03/12 11:41:11;;;;;;;;;;;;;;;17.83;37.22;99371.34;4414455;32;19975;-49
2021/03/12 11:43:37;;;;;;;;;;;;;;;17.83;37.24;99379.22;4413889;32;20371;-47
2021/03/12 11:46:02;;;;;;;;;;;;;;;17.84;37.21;99375.72;4414591;32;20031;-49
2021/03/12 11:48:28;;;;;;;;;;;;;;;17.85;37.13;99382.78;4413472;32;19970;-48
2021/03/12 11:50:56;;;;;;;;;;;;;;;17.86;37.13;99392.44;4414154;32;20018;-47
2021/03/12 11:53:22;;;;;;;;;;;;;;;17.86;37.08;99410.00;4414553;32;20013;-47
2021/03/12 11:55:48;;;;;;;;;;;;;;;17.81;37.11;99417.84;4414830;32;20869;-51
2021/03/12 11:58:14;;;;;;;;;;;;;;;17.83;37.08;99421.37;4413450;32;19954;-47
2021/03/12 12:00:40;;;;;;;;;;;;;;;17.83;37.09;99381.88;4413534;32;19957;-51
2021/03/12 12:03:05;;;;;;;;;;;;;;;17.85;37.23;99385.44;4413547;32;19975;-47
2021/03/12 12:05:31;;;;;;;;;;;;;;;17.87;37.26;99391.56;4414773;32;19965;-46
2021/03/12 12:07:57;;;;;;;;;;;;;;;17.88;37.20;99389.81;4414401;32;19954;-51
2021/03/12 12:10:24;;;;;;;;;;;;;;;17.83;37.35;99390.66;4414004;32;19958;-47
2021/03/12 12:12:55;;;;;;;;;;;;;;;17.86;37.33;99374.00;4414277;32;19954;-47
2021/03/12 12:15:21;;;;;;;;;;;;;;;17.90;37.29;99370.53;4413878;32;19977;-44
2021/03/12 12:17:47;;;;;;;;;;;;;;;17.85;37.31;99367.00;4413044;32;19953;-49
2021/03/12 12:20:13;;;;;;;;;;;;;;;17.80;37.43;99358.16;4413873;32;19958;-49
2021/03/12 12:22:38;;;;;;;;;;;;;;;17.89;37.29;99363.50;4415066;32;20369;-50
2021/03/12 12:25:04;;;;;;;;;;;;;;;17.96;37.18;99367.03;4414066;32;20406;-48
2021/03/12 12:27:30;;;;;;;;;;;;;;;18.01;37.15;99362.66;4408820;32;19997;-48
2021/03/12 12:29:56;;;;;;;;;;;;;;;18.06;36.96;99360.09;4411544;32;19954;-50
2021/03/12 12:32:22;;;;;;;;;;;;;;;18.08;37.02;99353.09;4412582;32;19993;-46
2021/03/12 12:34:48;;;;;;;;;;;;;;;18.05;36.98;99348.69;4414123;32;19954;-47
2021/03/12 12:37:14;;;;;;;;;;;;;;;18.07;36.99;99348.69;4413120;32;19962;-44
2021/03/12 12:39:40;;;;;;;;;;;;;;;18.08;37.07;99338.16;4414717;32;19954;-46